EDLP/PAD METAR and TAF weather

Enter ICAO airport designator
Station Type Date Time Source
EDLP METAR 2020/08/05 15:20 UTC NOAA

EDLP 051520Z VRB04KT CAVOK 28/05 Q1016


Station Type Date Time Source
EDLP Decoded METAR 2020/08/05 15:20 UTC NOAA

Paderborn / Lippstadt, Germany (EDLP) 51-37N 008-37E
Aug 05, 2020 - 11:20 AM EDT / 2020.08.05 1520 UTC
Wind: Variable at 5 MPH (4 KT):0
Visibility: greater than 7 mile(s):0
Temperature: 82 F (28 C)
Dew Point: 41 F (5 C)
Relative Humidity: 23%
Pressure (altimeter): 30.00 in. Hg (1016 hPa)
ob: EDLP 051520Z VRB04KT CAVOK 28/05 Q1016
cycle: 15

Station Type Date Time Source
EDLP TAF 2020/08/05 12:27 UTC NOAA

TAF EDLP 051100Z 0512/0612 23007KT CAVOK
BECMG 0515/0518 17007KT
BECMG 0609/0612 04005KT

Example: see airport list